»·PEaware :: AAL2419 KLAX-KDFW

AAL2419 :: KLAX-KDFW

FLIGHT INFORMATION

Flight Status: Arrived
Operator:
American Airlines
More flights by this operator :: More flights under this callsign
Pilot: Drew Leevy (13237)
Aircraft: BOEING 757-200
(B752)
More flights by this aircraft type
Origin: KLAX Los Angeles Intl
United States
Destination: KDFW Dallas-Ft Worth Intl
United States
More flights between these airports :: More routes between these airports
Route: DOTSS1 CLEEE EED J6 DRK SJN J74 TXO TURKI VKTRY2
File this flight plan on PilotEdge
Remarks:
Altitude:
(Current/Filed)
35,000ft
Speed:
(Current/Filed)
500kts
Departed: 11-Mar-17 05:25 PM
Arrived: 11-Mar-17 07:59 PM
Distance/Time
Traveled:
1070nm/2:34
Distance/Time
To Go:
Arrived

Flight Plot

Page will automatically refresh every two minutes.

Flight plan parsing failed; only flown route is shown


Map Options




Map Legend


Flown Route
Filed Route
Departure Airport
Arrival Airport
Navaid (VOR, NDB)
Fix

Horizontal Profiles

Position Reports

Time Latitude Longitude Heading Altitude Ground
Speed
11-Mar-17 16:47 33.939633 -118.406545 353 137ft 0kts
11-Mar-17 16:48 33.939633 -118.406545 353 137ft 0kts
11-Mar-17 16:49 33.939633 -118.406545 353 137ft 0kts
11-Mar-17 16:50 33.939633 -118.406545 353 137ft 0kts
11-Mar-17 16:51 33.939633 -118.406545 353 137ft 0kts
11-Mar-17 16:52 33.939633 -118.406545 353 137ft 0kts
11-Mar-17 16:53 33.939633 -118.406545 353 137ft 0kts
11-Mar-17 16:54 33.939633 -118.406545 353 137ft 0kts
11-Mar-17 16:55 33.939633 -118.406545 353 137ft 0kts
11-Mar-17 16:56 33.939633 -118.406545 353 137ft 0kts
11-Mar-17 16:57 33.939633 -118.406545 353 137ft 0kts
11-Mar-17 16:58 33.939633 -118.406545 353 137ft 0kts
11-Mar-17 16:59 33.939633 -118.406545 353 137ft 0kts
11-Mar-17 17:00 33.939633 -118.406545 353 137ft 0kts
11-Mar-17 17:01 33.939633 -118.406545 353 137ft 0kts
11-Mar-17 17:02 33.939633 -118.406545 353 137ft 0kts
11-Mar-17 17:03 33.939633 -118.406545 353 137ft 0kts
11-Mar-17 17:04 33.939633 -118.406545 353 137ft 0kts
11-Mar-17 17:05 33.939633 -118.406545 353 136ft 0kts
11-Mar-17 17:06 33.939633 -118.406545 353 136ft 0kts
11-Mar-17 17:07 33.939633 -118.406545 353 136ft 0kts
11-Mar-17 17:08 33.939633 -118.406545 353 136ft 0kts
11-Mar-17 17:09 33.939633 -118.406545 353 136ft 0kts
11-Mar-17 17:10 33.939633 -118.406545 353 136ft 0kts
11-Mar-17 17:11 33.939633 -118.406545 353 136ft 0kts
11-Mar-17 17:12 33.939633 -118.406545 353 136ft 0kts
11-Mar-17 17:13 33.939633 -118.406545 353 136ft 0kts
11-Mar-17 17:14 33.939065 -118.406456 359 136ft 2kts
11-Mar-17 17:15 33.938887 -118.406575 71 136ft 0kts
11-Mar-17 17:16 33.938889 -118.406569 71 136ft 0kts
11-Mar-17 17:17 33.938969 -118.406149 81 136ft 0kts
11-Mar-17 17:18 33.938969 -118.406149 81 136ft 0kts
11-Mar-17 17:19 33.938507 -118.405279 157 137ft 5kts
11-Mar-17 17:20 33.938654 -118.401406 84 136ft 13kts
11-Mar-17 17:21 33.939019 -118.397436 83 136ft 11kts
11-Mar-17 17:22 33.939417 -118.393905 83 136ft 10kts
11-Mar-17 17:23 33.939746 -118.390577 83 136ft 9kts
11-Mar-17 17:24 33.939920 -118.388441 102 136ft 0kts
11-Mar-17 17:25 33.939157 -118.388297 221 136ft 9kts
11-Mar-17 17:26 33.934331 -118.429919 259 1002ft 209kts
11-Mar-17 17:27 33.911156 -118.494278 223 4471ft 233kts
11-Mar-17 17:28 33.859737 -118.551416 204 7469ft 269kts
11-Mar-17 17:29 33.783268 -118.541415 171 10412ft 298kts
11-Mar-17 17:30 33.695785 -118.502859 137 11534ft 388kts
11-Mar-17 17:31 33.653487 -118.383400 106 13027ft 396kts
11-Mar-17 17:32 33.642967 -118.250615 88 15098ft 409kts
11-Mar-17 17:33 33.643017 -118.111844 88 16990ft 423kts
11-Mar-17 17:34 33.643460 -117.970111 88 17805ft 430kts
11-Mar-17 17:35 33.641982 -117.828213 88 20083ft 444kts
11-Mar-17 17:36 33.672352 -117.683822 67 21987ft 456kts
11-Mar-17 17:37 33.714566 -117.538424 76 23792ft 471kts
11-Mar-17 17:38 33.735536 -117.381759 80 25385ft 485kts
11-Mar-17 17:39 33.748903 -117.219569 88 26777ft 498kts
11-Mar-17 17:40 33.745549 -117.051771 90 28028ft 508kts
11-Mar-17 17:41 33.741504 -116.880710 90 29109ft 519kts
11-Mar-17 17:42 33.738032 -116.706611 90 30228ft 523kts
11-Mar-17 17:43 33.734302 -116.532625 90 31502ft 522kts
11-Mar-17 17:44 33.730396 -116.358986 90 32619ft 520kts
11-Mar-17 17:45 33.725184 -116.186199 89 33697ft 518kts
11-Mar-17 17:46 33.761186 -116.023273 53 34627ft 503kts
11-Mar-17 17:47 33.843228 -115.889460 47 35075ft 496kts
11-Mar-17 17:48 33.928288 -115.760577 47 35101ft 494kts
11-Mar-17 17:49 34.013478 -115.631240 47 35101ft 494kts
11-Mar-17 17:50 34.098536 -115.501656 47 35102ft 494kts
11-Mar-17 17:51 34.183257 -115.372121 47 35069ft 494kts
11-Mar-17 17:52 34.267927 -115.242195 47 34995ft 494kts
11-Mar-17 17:53 34.352636 -115.111734 47 34996ft 494kts
11-Mar-17 17:54 34.437207 -114.981009 47 34997ft 494kts
11-Mar-17 17:55 34.521684 -114.850533 47 34989ft 494kts
11-Mar-17 17:56 34.606307 -114.719476 48 34993ft 494kts
11-Mar-17 17:57 34.688323 -114.585296 49 34995ft 495kts
11-Mar-17 17:58 34.751522 -114.437366 76 35004ft 508kts
11-Mar-17 17:59 34.755639 -114.265072 89 34970ft 512kts
11-Mar-17 18:00 34.751686 -114.091880 90 34971ft 513kts
11-Mar-17 18:01 34.746910 -113.919245 90 35096ft 513kts
11-Mar-17 18:02 34.742383 -113.745930 90 35101ft 513kts
11-Mar-17 18:03 34.737132 -113.572626 90 35102ft 513kts
11-Mar-17 18:04 34.731553 -113.400065 90 35104ft 514kts
11-Mar-17 18:05 34.725698 -113.226874 90 35132ft 514kts
11-Mar-17 18:06 34.719591 -113.053556 90 35134ft 514kts
11-Mar-17 18:07 34.713268 -112.880391 91 35130ft 514kts
11-Mar-17 18:08 34.707274 -112.707024 91 35128ft 515kts
11-Mar-17 18:09 34.700478 -112.533431 91 35130ft 515kts
11-Mar-17 18:10 34.690080 -112.360426 93 35131ft 515kts
11-Mar-17 18:11 34.677586 -112.187235 93 35158ft 515kts
11-Mar-17 18:12 34.664870 -112.014068 93 35135ft 515kts
11-Mar-17 18:13 34.652193 -111.841060 94 35127ft 516kts
11-Mar-17 18:14 34.639381 -111.667884 94 35128ft 516kts
11-Mar-17 18:15 34.625986 -111.494957 94 35130ft 516kts
11-Mar-17 18:16 34.612269 -111.321660 94 35159ft 516kts
11-Mar-17 18:17 34.598333 -111.148750 94 35165ft 516kts
11-Mar-17 18:18 34.585376 -110.975635 93 35183ft 517kts
11-Mar-17 18:19 34.571996 -110.802095 94 35155ft 517kts
11-Mar-17 18:20 34.557629 -110.629193 95 35156ft 517kts
11-Mar-17 18:21 34.542709 -110.456088 95 35238ft 517kts
11-Mar-17 18:22 34.527510 -110.283016 95 35241ft 517kts
11-Mar-17 18:23 34.512077 -110.110140 95 35242ft 517kts
11-Mar-17 18:24 34.496358 -109.936869 95 35176ft 518kts
11-Mar-17 18:25 34.481006 -109.764216 95 35155ft 518kts
11-Mar-17 18:26 34.464945 -109.591087 95 35157ft 518kts
11-Mar-17 18:27 34.448488 -109.417785 95 35157ft 518kts
11-Mar-17 18:28 34.431845 -109.245292 95 35157ft 518kts
11-Mar-17 18:29 34.420640 -109.072028 87 35164ft 517kts
11-Mar-17 18:30 34.420534 -108.898668 89 35160ft 517kts
11-Mar-17 18:31 34.420220 -108.725262 89 35152ft 517kts
11-Mar-17 18:32 34.419074 -108.550924 89 35194ft 517kts
11-Mar-17 18:33 34.417602 -108.377260 89 35210ft 517kts
11-Mar-17 18:34 34.415875 -108.203451 89 35212ft 518kts
11-Mar-17 18:35 34.413894 -108.029109 89 35213ft 518kts
11-Mar-17 18:36 34.411857 -107.855429 90 35200ft 518kts
11-Mar-17 18:37 34.409837 -107.679861 91 35210ft 526kts
11-Mar-17 18:38 34.407118 -107.503054 91 35155ft 525kts
11-Mar-17 18:39 34.404099 -107.326143 91 35158ft 526kts
11-Mar-17 18:40 34.400831 -107.149526 91 35160ft 526kts
11-Mar-17 18:41 34.397305 -106.972702 91 35162ft 527kts
11-Mar-17 18:42 34.393979 -106.795784 92 35153ft 527kts
11-Mar-17 18:43 34.390141 -106.618574 92 35155ft 527kts
11-Mar-17 18:44 34.385869 -106.442244 92 35159ft 525kts
11-Mar-17 18:45 34.381308 -106.265187 92 35159ft 527kts
11-Mar-17 18:46 34.376499 -106.088575 92 35322ft 528kts
11-Mar-17 18:47 34.371405 -105.910751 92 35326ft 528kts
11-Mar-17 18:48 34.366667 -105.733859 93 35316ft 528kts
11-Mar-17 18:49 34.370437 -105.556169 87 35319ft 529kts
11-Mar-17 18:50 34.378914 -105.377647 86 35324ft 536kts
11-Mar-17 18:51 34.386779 -105.227075 86 35328ft 545kts
11-Mar-17 18:52 34.397771 -105.013502 86 35327ft 546kts
11-Mar-17 18:53 34.407264 -104.829790 86 35313ft 546kts
11-Mar-17 18:54 34.416456 -104.646943 87 35316ft 546kts
11-Mar-17 18:55 34.423678 -104.493945 87 35320ft 546kts
11-Mar-17 18:56 34.433411 -104.280415 87 35322ft 546kts
11-Mar-17 18:57 34.440141 -104.127620 87 35325ft 546kts
11-Mar-17 18:58 34.449225 -103.914094 87 35328ft 546kts
11-Mar-17 18:59 34.456052 -103.761015 87 35315ft 546kts
11-Mar-17 20:00 32.901181 -97.052263 90 617ft 0kts
11-Mar-17 20:01 32.901181 -97.052263 90 617ft 0kts
11-Mar-17 20:02 32.901181 -97.052263 90 617ft 0kts
11-Mar-17 20:03 32.901181 -97.052263 90 617ft 0kts
11-Mar-17 20:04 32.901181 -97.052263 90 617ft 0kts
11-Mar-17 20:05 32.901181 -97.052263 90 617ft 0kts
11-Mar-17 20:06 32.901181 -97.052263 90 617ft 0kts
11-Mar-17 20:07 32.901181 -97.052263 90 617ft 0kts
11-Mar-17 20:08 32.901181 -97.052263 90 617ft 0kts
11-Mar-17 20:09 32.901184 -97.051348 90 617ft 23kts
11-Mar-17 20:10 32.898933 -97.047703 179 617ft 24kts
11-Mar-17 20:11 32.896271 -97.045778 78 617ft 0kts

Navigation Log

Ident Type
Flight plan parsing failed, navigation log unavailable